This is the latest recevied weather packets stored in our database for station/object EA1RCG-11. If no packets are shown the sender has not sent any weather packets the latest 10 day(s).
| Time | Temp. | Humidity | Pressure | Rain* | Wind** | Luminosity | Snow |
|---|---|---|---|---|---|---|---|
| 1787787440 | 18.89° C | 59% | 973.5 hPa | - | - | - | - |
| 1787785640 | 18.89° C | 59% | 973.9 hPa | - | - | - | - |
| 1787783840 | 18.33° C | 60% | 973.7 hPa | - | - | - | - |
| 1787782040 | 18.89° C | 60% | 973.8 hPa | - | - | - | - |
| 1787780240 | 19.44° C | 59% | 973.7 hPa | - | - | - | - |
| 1787778440 | 20° C | 59% | 973.9 hPa | - | - | - | - |
| 1787776640 | 20.56° C | 58% | 973.8 hPa | - | - | - | - |
| 1787774840 | 20.56° C | 59% | 973.4 hPa | - | - | - | - |
| 1787773040 | 20.56° C | 59% | 972.7 hPa | - | - | - | - |
| 1787771240 | 21.11° C | 58% | 972.3 hPa | - | - | - | - |
| 1787769439 | 22.22° C | 58% | 971.8 hPa | - | - | - | - |
| 1787767639 | 22.78° C | 56% | 971.4 hPa | - | - | - | - |
| 1787765839 | 22.78° C | 57% | 971.5 hPa | - | - | - | - |
| 1787764039 | 23.33° C | 56% | 971.3 hPa | - | - | - | - |
| 1787762239 | 24.44° C | 55% | 971.1 hPa | - | - | - | - |
| 1787760439 | 24.44° C | 55% | 970.8 hPa | - | - | - | - |
| 1787758639 | 23.89° C | 57% | 971.4 hPa | - | - | - | - |
| 1787756839 | 24.44° C | 56% | 971.2 hPa | - | - | - | - |
| 1787755039 | 24.44° C | 57% | 972.4 hPa | - | - | - | - |
| 1787753238 | 26.11° C | 55% | 972.4 hPa | - | - | - | - |
| 1787751438 | 28.33° C | 52% | 972.3 hPa | - | - | - | - |
| 1787749638 | 27.78° C | 53% | 971.7 hPa | - | - | - | - |
| 1787747838 | 27.22° C | 55% | 971.1 hPa | - | - | - | - |
| 1787746038 | 30° C | 51% | 970.1 hPa | - | - | - | - |
| 1787744238 | 33.33° C | 47% | 970.2 hPa | - | - | - | - |
* Rain since midnight (hover to see other rain measurements)
** Current wind speed in m/s (hover to see current wind gust speed)